KLGA Airport Information

Runway Information
Runway 04 Length 7000 ft width 150 ft
Elevation 22 ft Threshold 0 ft Heading 32
Runway 22 Length 7000 ft Width 150 ft
Elevation 13 ft Threshold 0 ft Heading 212
Runway 13 Length 7000 ft width 150 ft
Elevation 13 ft Threshold 0 ft Heading 122
Runway 31 Length 7000 ft Width 150 ft
Elevation 8 ft Threshold 0 ft Heading 302
Airport Frequencies
Type APP Name NEW YORK A Frequency 118 MHZ
Type APP Name NEW YORK A Frequency 132.7 MHZ
Type ATIS Name ATIS Frequency 125.95 MHZ
Type CLD Name CLNC DEL Frequency 121.875 MHZ
Type DEP Name NEW YORK D Frequency 120.4 MHZ
Type GND Name GND Frequency 121.7 MHZ
Type TWR Name TWR Frequency 118.7 MHZ
Type UNIC Name UNICOM Frequency 122.95 MHZ
Airport Navaids
Type NDB Name Peths Frequency 332 KHZ
Type VOR-DME Name La Guardia Frequency 113100 KHZ
Type NDB Name Orchy Frequency 385 KHZ
Airport Weather Information & NOTAM
ADDS - METARS form results

(0125 UTC 25 May 2018)
 
METAR text: KLGA 250051Z 19008KT 10SM CLR 24/06 A3007 RMK AO2 SLP181 T02390061
Conditions at: KLGA (NYC/LA GUARDIA , NY, US) observed 0051 UTC 25 May 2018
Temperature: 23.9°C (75°F)
Dewpoint: 6.1°C (43°F) [RH = 32%]
Pressure (altimeter): 30.07 inches Hg (1018.4 mb)
[Sea-level pressure: 1018.1 mb]
Winds: from the S (190 degrees) at 9 MPH (8 knots; 4.2 m/s)
Visibility: 10 or more miles (16+ km)
Ceiling: at least 12,000 feet AGL
Clouds: sky clear below 12,000 feet AGL
Weather: no significant weather observed at this time